Time;durP1;ratioP1;P1;durP2;ratioP2;P2;SDS_P1;SDS_P2;PMS_P1;PMS_P2;Temp;Humidity;BMP_temperature;BMP_pressure;BME280_temperature;BME280_humidity;BME280_pressure;Samples;Min_cycle;Max_cycle;Signal;HPM_P1;HPM_P2
2022/11/29 00:01:34;;;;;;;34.90;20.33;;;5.40;1.00;;;;;;5075817;28;20441;-70
2022/11/29 00:04:00;;;;;;;38.13;21.20;;;5.30;1.00;;;;;;5075479;28;20475;-74
2022/11/29 00:06:29;;;;;;;34.50;21.00;;;5.30;1.00;;;;;;5075889;28;20897;-74
2022/11/29 00:08:59;;;;;;;35.13;21.70;;;5.30;1.00;;;;;;5075821;28;20423;-71
2022/11/29 00:14:15;;;;;;;33.23;19.87;;;5.30;1.00;;;;;;5075433;28;20892;-74
2022/11/29 00:16:41;;;;;;;36.07;19.87;;;5.30;1.00;;;;;;5075818;28;20507;-72
2022/11/29 00:19:11;;;;;;;37.70;21.23;;;5.30;1.00;;;;;;5075768;28;20403;-70
2022/11/29 00:21:37;;;;;;;36.60;22.23;;;5.30;1.00;;;;;;5075723;28;20489;-70
2022/11/29 00:24:03;;;;;;;41.83;22.50;;;5.40;1.00;;;;;;5075089;28;20447;-71
2022/11/29 00:26:29;;;;;;;35.83;21.87;;;5.30;1.00;;;;;;5075598;28;20517;-70
2022/11/29 00:28:55;;;;;;;34.27;20.23;;;5.30;1.00;;;;;;5074850;28;20431;-70
2022/11/29 00:31:31;;;;;;;32.13;19.97;;;5.30;1.00;;;;;;5075415;28;20233;-74
2022/11/29 00:33:59;;;;;;;35.17;22.00;;;5.30;1.00;;;;;;5075044;28;20263;-70
2022/11/29 00:36:25;;;;;;;36.20;21.50;;;5.30;1.00;;;;;;5075333;28;20427;-70
2022/11/29 00:38:51;;;;;;;33.17;20.13;;;5.20;1.00;;;;;;5075446;28;20401;-70
2022/11/29 00:41:17;;;;;;;43.37;22.50;;;5.20;1.00;;;;;;5075459;28;20408;-74
2022/11/29 00:43:43;;;;;;;33.17;21.90;;;5.20;1.00;;;;;;5074691;28;20162;-70
2022/11/29 00:46:11;;;;;;;38.53;21.87;;;5.20;1.00;;;;;;5074518;28;20436;-70
2022/11/29 00:48:37;;;;;;;36.87;20.83;;;5.30;1.00;;;;;;5075179;28;20708;-74
2022/11/29 00:51:04;;;;;;;35.07;20.33;;;5.30;1.00;;;;;;5075021;28;20484;-74
2022/11/29 00:53:31;;;;;;;43.07;21.60;;;5.30;1.00;;;;;;5074780;28;20401;-74
2022/11/29 00:55:59;;;;;;;42.03;21.53;;;5.30;1.00;;;;;;5073358;28;20463;-70
2022/11/29 00:58:26;;;;;;;31.60;19.30;;;5.20;1.00;;;;;;5075076;28;20435;-74
2022/11/29 01:00:53;;;;;;;35.27;20.53;;;5.30;1.00;;;;;;5074513;28;20411;-71
2022/11/29 01:03:19;;;;;;;37.50;23.23;;;5.20;1.00;;;;;;5074189;28;20454;-75
2022/11/29 01:05:45;;;;;;;38.20;21.80;;;5.20;1.00;;;;;;5074254;28;20396;-71
2022/11/29 01:08:12;;;;;;;33.47;21.27;;;5.20;1.00;;;;;;5073574;28;20243;-70
2022/11/29 01:10:38;;;;;;;33.10;21.73;;;5.20;1.00;;;;;;5073482;28;20948;-71
2022/11/29 01:13:04;;;;;;;33.87;21.70;;;5.10;1.00;;;;;;5074760;28;20412;-74
2022/11/29 01:15:30;;;;;;;34.33;21.17;;;5.20;1.00;;;;;;5072636;28;20907;-73
2022/11/29 01:17:56;;;;;;;38.90;22.57;;;5.10;1.00;;;;;;5074417;28;20408;-71
2022/11/29 01:20:22;;;;;;;37.87;21.50;;;5.10;1.00;;;;;;5074286;28;20793;-70
2022/11/29 01:22:48;;;;;;;33.80;21.57;;;5.20;1.00;;;;;;5074528;28;20473;-71
2022/11/29 01:25:14;;;;;;;45.00;23.73;;;5.10;1.00;;;;;;5074117;28;20437;-74
2022/11/29 01:27:40;;;;;;;35.77;21.70;;;5.00;1.00;;;;;;5074438;28;20197;-74
2022/11/29 01:30:09;;;;;;;44.70;23.30;;;5.10;1.00;;;;;;5074351;28;20455;-74
2022/11/29 01:32:37;;;;;;;41.23;21.17;;;5.00;1.00;;;;;;5074419;28;20397;-75
2022/11/29 01:35:05;;;;;;;37.97;22.57;;;5.00;1.00;;;;;;5073419;28;20403;-75
2022/11/29 01:37:31;;;;;;;37.73;21.20;;;5.00;1.00;;;;;;5073639;28;20519;-70
2022/11/29 01:39:57;;;;;;;38.20;21.90;;;5.00;1.00;;;;;;5073154;28;20416;-74
2022/11/29 01:42:23;;;;;;;31.97;20.97;;;5.10;1.00;;;;;;5074047;28;20420;-74
2022/11/29 01:44:48;;;;;;;42.57;22.63;;;5.10;1.00;;;;;;5073445;28;20181;-71
2022/11/29 01:47:16;;;;;;;48.23;21.40;;;5.10;1.00;;;;;;5073013;28;20801;-71
2022/11/29 01:49:45;;;;;;;35.20;21.40;;;5.10;1.00;;;;;;5072453;28;20196;-75
2022/11/29 01:52:25;;;;;;;32.07;19.77;;;5.10;1.00;;;;;;5073178;28;20412;-75
2022/11/29 01:54:55;;;;;;;38.30;24.00;;;5.10;1.00;;;;;;5073298;28;20730;-72
2022/11/29 01:57:22;;;;;;;42.37;22.03;;;5.10;1.00;;;;;;5073893;28;20453;-76
2022/11/29 01:59:50;;;;;;;32.83;20.93;;;5.10;1.00;;;;;;5073805;28;20956;-76
2022/11/29 02:02:23;;;;;;;38.27;23.03;;;5.00;1.00;;;;;;5072469;28;20409;-75
2022/11/29 02:04:49;;;;;;;31.90;22.60;;;5.00;1.00;;;;;;5073096;28;20415;-72
2022/11/29 02:07:15;;;;;;;41.57;22.23;;;5.00;1.00;;;;;;5073628;28;20422;-74
2022/11/29 02:09:41;;;;;;;36.67;22.17;;;5.10;1.00;;;;;;5072889;28;20891;-72
2022/11/29 02:12:22;;;;;;;39.70;21.73;;;5.10;1.00;;;;;;5072690;28;20418;-71
2022/11/29 02:15:04;;;;;;;45.80;22.47;;;5.10;1.00;;;;;;5072955;28;20190;-76
2022/11/29 02:17:53;;;;;;;39.87;21.90;;;5.10;1.00;;;;;;5073427;28;20418;-75
2022/11/29 02:20:31;;;;;;;33.03;19.50;;;5.10;1.00;;;;;;5073381;28;20921;-72
2022/11/29 02:23:20;;;;;;;36.70;19.53;;;5.10;1.00;;;;;;5072141;28;20473;-71
2022/11/29 02:25:52;;;;;;;38.47;21.97;;;5.10;1.00;;;;;;5072801;28;20412;-71
2022/11/29 02:28:32;;;;;;;40.20;23.03;;;5.00;1.00;;;;;;5072649;28;20943;-74
2022/11/29 02:31:22;;;;;;;42.93;23.80;;;5.00;1.00;;;;;;5073217;28;20439;-71
2022/11/29 02:34:39;;;;;;;42.73;23.03;;;5.00;1.00;;;;;;5072698;28;20893;-75
2022/11/29 02:37:35;;;;;;;42.87;22.53;;;5.00;1.00;;;;;;5073226;28;20966;-71
2022/11/29 02:40:25;;;;;;;39.50;22.63;;;5.00;1.00;;;;;;5037608;28;20447;-74
2022/11/29 02:43:33;;;;;;;41.53;22.63;;;5.00;1.00;;;;;;5073213;28;20915;-75
2022/11/29 02:46:10;;;;;;;37.57;21.10;;;5.10;1.00;;;;;;5072091;28;20427;-72
2022/11/29 02:49:00;;;;;;;36.17;20.80;;;5.10;1.00;;;;;;5073062;28;20446;-75
2022/11/29 02:51:35;;;;;;;39.50;23.07;;;5.10;1.00;;;;;;5073095;28;20454;-73
2022/11/29 02:54:23;;;;;;;40.67;23.17;;;5.20;1.00;;;;;;5071116;28;20423;-74
2022/11/29 02:57:19;;;;;;;40.20;23.47;;;5.20;1.00;;;;;;5071627;28;20457;-72
2022/11/29 03:00:04;;;;;;;41.23;22.13;;;5.20;1.00;;;;;;5073017;28;20412;-74
2022/11/29 03:02:58;;;;;;;41.27;22.40;;;5.20;1.00;;;;;;5072960;28;20443;-72
2022/11/29 03:05:46;;;;;;;44.37;23.80;;;5.20;1.00;;;;;;5072016;28;20419;-73
2022/11/29 03:08:24;;;;;;;46.53;24.30;;;5.20;1.00;;;;;;5072999;28;20411;-71
2022/11/29 03:11:36;;;;;;;39.70;24.20;;;5.10;1.00;;;;;;5072684;28;20448;-74
2022/11/29 03:14:24;;;;;;;34.47;22.70;;;5.00;1.00;;;;;;5047567;28;20451;-74
2022/11/29 03:17:15;;;;;;;34.60;21.47;;;5.10;1.00;;;;;;5072638;28;20428;-74
2022/11/29 03:20:13;;;;;;;46.77;23.60;;;5.00;1.00;;;;;;5061766;28;20420;-72
2022/11/29 03:23:14;;;;;;;44.20;24.43;;;5.10;1.00;;;;;;5040158;28;20423;-74
2022/11/29 03:25:58;;;;;;;36.53;21.90;;;5.10;1.00;;;;;;5076081;28;20437;-72
2022/11/29 03:28:32;;;;;;;42.50;26.17;;;5.10;1.00;;;;;;5076681;28;20453;-72
2022/11/29 03:31:34;;;;;;;43.33;26.80;;;5.10;1.00;;;;;;5076531;28;20443;-74
2022/11/29 03:34:45;;;;;;;49.17;21.70;;;5.10;1.00;;;;;;5076119;28;20753;-74
2022/11/29 03:37:40;;;;;;;39.20;23.37;;;5.20;1.00;;;;;;4978916;28;20442;-74
2022/11/29 03:40:10;;;;;;;44.70;22.63;;;5.20;1.00;;;;;;5076130;28;20423;-74
2022/11/29 03:42:59;;;;;;;43.87;22.90;;;5.20;1.00;;;;;;5076284;28;20404;-74
2022/11/29 03:45:32;;;;;;;38.67;22.40;;;5.10;1.00;;;;;;5063700;28;20420;-74
2022/11/29 03:48:06;;;;;;;38.73;24.23;;;5.20;1.00;;;;;;5076438;28;20418;-72
2022/11/29 03:50:45;;;;;;;37.10;23.53;;;5.20;1.00;;;;;;5075227;28;20475;-74
2022/11/29 03:53:30;;;;;;;38.90;23.53;;;5.20;1.00;;;;;;5075295;28;20415;-71
2022/11/29 03:56:00;;;;;;;44.50;23.63;;;5.20;1.00;;;;;;5075632;28;20496;-72
2022/11/29 03:58:32;;;;;;;36.47;23.13;;;5.20;1.00;;;;;;5075689;28;20400;-72
2022/11/29 04:01:35;;;;;;;43.93;27.50;;;5.20;1.00;;;;;;5076052;28;20396;-75
2022/11/29 04:04:14;;;;;;;37.60;22.63;;;5.20;1.00;;;;;;5075488;28;20411;-75
2022/11/29 04:07:08;;;;;;;40.33;23.70;;;5.20;1.00;;;;;;5075906;28;20434;-72
2022/11/29 04:10:00;;;;;;;56.30;25.53;;;5.20;1.00;;;;;;5075941;28;20411;-72
2022/11/29 04:13:00;;;;;;;49.50;27.03;;;5.10;1.00;;;;;;5075912;28;20455;-74
2022/11/29 04:16:10;;;;;;;42.03;26.10;;;5.10;1.00;;;;;;5075009;28;20742;-73
2022/11/29 04:19:03;;;;;;;42.03;24.63;;;5.00;1.00;;;;;;5075756;28;20869;-74
2022/11/29 04:21:36;;;;;;;47.13;26.10;;;5.00;1.00;;;;;;5075565;28;20460;-74
2022/11/29 04:24:26;;;;;;;42.13;27.00;;;5.00;1.00;;;;;;5074942;28;20467;-73
2022/11/29 04:27:16;;;;;;;42.60;26.47;;;5.10;1.00;;;;;;5075485;28;20420;-72
2022/11/29 04:30:19;;;;;;;50.03;23.80;;;5.10;1.00;;;;;;5075516;28;20400;-74
2022/11/29 04:33:06;;;;;;;43.33;23.67;;;5.10;1.00;;;;;;4993986;28;20432;-73
2022/11/29 04:35:53;;;;;;;43.97;24.50;;;5.20;1.00;;;;;;5069462;28;20412;-72
2022/11/29 04:38:46;;;;;;;38.80;23.90;;;5.10;1.00;;;;;;5075341;28;20861;-72
2022/11/29 04:41:27;;;;;;;43.43;25.23;;;5.10;1.00;;;;;;5075478;28;20861;-72
2022/11/29 04:44:17;;;;;;;49.67;27.10;;;5.10;1.00;;;;;;5074881;28;20410;-74
2022/11/29 04:46:54;;;;;;;41.07;25.40;;;5.10;1.00;;;;;;5075349;28;20447;-75
2022/11/29 04:49:50;;;;;;;35.70;25.83;;;5.10;1.00;;;;;;5075189;28;20442;-75
2022/11/29 04:52:50;;;;;;;49.57;26.30;;;5.10;1.00;;;;;;5073954;28;20935;-74
2022/11/29 04:55:39;;;;;;;43.00;25.07;;;5.00;1.00;;;;;;5073939;28;20479;-73
2022/11/29 04:58:36;;;;;;;52.20;26.60;;;5.00;1.00;;;;;;5073911;28;20412;-74
2022/11/29 05:01:37;;;;;;;42.60;23.27;;;5.10;1.00;;;;;;5075047;28;20391;-72
2022/11/29 05:04:08;;;;;;;43.77;25.80;;;5.10;1.00;;;;;;5074336;28;20464;-73
2022/11/29 05:06:57;;;;;;;52.43;26.87;;;5.10;1.00;;;;;;5075017;28;20911;-74
2022/11/29 05:09:46;;;;;;;46.80;27.27;;;5.10;1.00;;;;;;5074800;28;20408;-75
2022/11/29 05:12:22;;;;;;;44.97;26.33;;;5.20;1.00;;;;;;5074834;28;20423;-74
2022/11/29 05:15:03;;;;;;;56.43;29.10;;;5.20;1.00;;;;;;5073697;28;20414;-72
2022/11/29 05:17:31;;;;;;;45.03;27.03;;;5.20;1.00;;;;;;5074507;28;20415;-74
2022/11/29 05:20:06;;;;;;;41.73;26.60;;;5.20;1.00;;;;;;5074665;28;20429;-75
2022/11/29 05:22:41;;;;;;;45.10;25.17;;;5.20;1.00;;;;;;5074626;28;20446;-71
2022/11/29 05:25:16;;;;;;;44.40;26.40;;;5.20;1.00;;;;;;5073989;28;20483;-72
2022/11/29 05:27:51;;;;;;;52.00;26.93;;;5.10;1.00;;;;;;5074296;28;20926;-74
2022/11/29 05:30:20;;;;;;;42.10;26.10;;;5.20;1.00;;;;;;5074383;28;20498;-74
2022/11/29 05:33:11;;;;;;;50.87;28.60;;;5.20;1.00;;;;;;5073888;28;20799;-72
2022/11/29 05:36:09;;;;;;;46.00;25.17;;;5.20;1.00;;;;;;5073657;28;20392;-75
2022/11/29 05:39:03;;;;;;;40.40;24.23;;;5.20;1.00;;;;;;5073457;28;20765;-74
2022/11/29 05:41:55;;;;;;;39.10;24.80;;;5.30;1.00;;;;;;5074236;28;20504;-74
2022/11/29 05:44:24;;;;;;;47.63;27.87;;;5.30;1.00;;;;;;5073498;28;20399;-72
2022/11/29 05:47:03;;;;;;;58.03;30.40;;;5.30;1.00;;;;;;5073944;28;20446;-72
2022/11/29 05:49:56;;;;;;;46.17;26.60;;;5.40;1.00;;;;;;5073942;28;20416;-72
2022/11/29 05:52:24;;;;;;;41.20;25.33;;;5.30;1.00;;;;;;5073431;28;20455;-74
2022/11/29 05:55:01;;;;;;;43.23;27.37;;;5.40;1.00;;;;;;5073299;28;20913;-74
2022/11/29 05:58:07;;;;;;;52.50;27.77;;;5.40;1.00;;;;;;5073836;28;20416;-73
2022/11/29 06:00:44;;;;;;;38.10;25.53;;;5.30;1.00;;;;;;5073900;28;20403;-73
2022/11/29 06:03:32;;;;;;;46.10;27.50;;;5.40;1.00;;;;;;5073883;28;20888;-71
2022/11/29 06:06:06;;;;;;;56.03;29.40;;;5.30;1.00;;;;;;5073045;28;20434;-74
2022/11/29 06:08:47;;;;;;;49.30;26.20;;;5.30;1.00;;;;;;5073869;28;20407;-71
2022/11/29 06:11:15;;;;;;;50.83;26.17;;;5.30;1.00;;;;;;5071836;28;20529;-73
2022/11/29 06:14:07;;;;;;;50.57;28.00;;;5.30;1.00;;;;;;5072909;28;20948;-72
2022/11/29 06:16:49;;;;;;;45.07;25.97;;;5.30;1.00;;;;;;5073595;28;20820;-71
2022/11/29 06:19:37;;;;;;;50.27;28.53;;;5.30;1.00;;;;;;5073639;28;20427;-74
2022/11/29 06:22:49;;;;;;;41.47;25.93;;;5.30;1.00;;;;;;5073291;28;20392;-73
2022/11/29 06:25:27;;;;;;;55.13;28.33;;;5.20;1.00;;;;;;5072813;28;20968;-74
2022/11/29 06:28:22;;;;;;;48.23;28.43;;;5.30;1.00;;;;;;5072027;28;20432;-73
2022/11/29 06:31:00;;;;;;;54.00;28.90;;;5.30;1.00;;;;;;5073073;28;20486;-72
2022/11/29 06:33:40;;;;;;;45.13;27.20;;;5.30;1.00;;;;;;5071647;28;20415;-74
2022/11/29 06:36:32;;;;;;;49.73;27.80;;;5.20;1.00;;;;;;5073109;28;20530;-74
2022/11/29 06:38:57;;;;;;;50.60;28.93;;;5.20;1.00;;;;;;5035446;28;20501;-73
2022/11/29 06:41:24;;;;;;;47.77;26.70;;;5.20;1.00;;;;;;5073260;28;20459;-74
2022/11/29 06:43:50;;;;;;;44.47;25.63;;;5.10;1.00;;;;;;5072634;28;20176;-71
2022/11/29 06:46:33;;;;;;;54.47;29.40;;;5.10;1.00;;;;;;5073020;28;20450;-72
2022/11/29 06:49:22;;;;;;;51.20;29.23;;;5.10;1.00;;;;;;5072654;28;20946;-73
2022/11/29 06:52:00;;;;;;;53.63;28.97;;;5.10;1.00;;;;;;5073045;28;20444;-73
2022/11/29 06:54:52;;;;;;;45.50;26.77;;;5.20;1.00;;;;;;5072259;28;20400;-72
2022/11/29 06:57:30;;;;;;;45.97;28.23;;;5.20;1.00;;;;;;5072023;28;20436;-73
2022/11/29 07:00:13;;;;;;;50.67;29.83;;;5.20;1.00;;;;;;5073142;28;20471;-73
2022/11/29 07:03:00;;;;;;;50.33;28.27;;;5.20;1.00;;;;;;5073049;28;20458;-73
2022/11/29 07:05:35;;;;;;;48.43;27.70;;;5.20;1.00;;;;;;5072411;28;20404;-74
2022/11/29 07:08:06;;;;;;;52.23;29.07;;;5.10;1.00;;;;;;5072382;28;20403;-72
2022/11/29 07:10:36;;;;;;;49.97;25.50;;;5.10;1.00;;;;;;5071511;28;20821;-74
2022/11/29 07:13:02;;;;;;;48.97;29.13;;;5.20;1.00;;;;;;5072875;28;20393;-74
2022/11/29 07:15:28;;;;;;;48.20;26.87;;;5.20;1.00;;;;;;5072170;28;20897;-74
2022/11/29 07:18:01;;;;;;;49.63;28.43;;;5.20;1.00;;;;;;5072907;28;20414;-72
2022/11/29 07:20:54;;;;;;;54.43;30.07;;;5.20;1.00;;;;;;5072698;28;20454;-74
2022/11/29 07:23:51;;;;;;;44.13;27.87;;;5.20;1.00;;;;;;5072748;28;20412;-74
2022/11/29 07:26:28;;;;;;;48.07;27.53;;;5.20;1.00;;;;;;5072337;28;20919;-73
2022/11/29 07:28:54;;;;;;;47.43;25.87;;;5.20;1.00;;;;;;5072428;28;20754;-74
2022/11/29 07:31:36;;;;;;;56.13;29.07;;;5.20;1.00;;;;;;5072733;28;20444;-74
2022/11/29 07:34:21;;;;;;;45.53;28.27;;;5.20;1.00;;;;;;5072266;28;20165;-73
2022/11/29 07:37:29;;;;;;;52.97;28.70;;;5.10;1.00;;;;;;5071494;28;20439;-73
2022/11/29 07:40:13;;;;;;;44.43;25.30;;;5.10;1.00;;;;;;5061892;28;20391;-73
2022/11/29 07:43:03;;;;;;;52.77;28.17;;;5.20;1.00;;;;;;5072632;28;20911;-73
2022/11/29 07:45:31;;;;;;;48.80;27.50;;;5.20;1.00;;;;;;5071665;28;20412;-75
2022/11/29 07:47:57;;;;;;;48.17;27.97;;;5.20;1.00;;;;;;5072272;28;20404;-75
2022/11/29 07:50:25;;;;;;;51.47;26.90;;;5.20;1.00;;;;;;5072405;28;20448;-72
2022/11/29 07:52:52;;;;;;;60.80;28.90;;;5.20;1.00;;;;;;5072408;28;20393;-73
2022/11/29 07:55:20;;;;;;;53.90;27.07;;;5.20;1.00;;;;;;5070970;28;20447;-75
2022/11/29 07:57:46;;;;;;;47.67;28.27;;;5.20;1.00;;;;;;5071942;28;20531;-73
2022/11/29 08:00:13;;;;;;;50.63;27.40;;;5.20;1.00;;;;;;5072376;28;20400;-73
2022/11/29 08:02:39;;;;;;;57.50;30.87;;;5.30;1.00;;;;;;5072445;28;20438;-74
2022/11/29 08:05:06;;;;;;;48.47;27.30;;;5.20;1.00;;;;;;5071355;28;20465;-74
2022/11/29 08:07:39;;;;;;;57.67;30.07;;;5.20;1.00;;;;;;5072027;28;20423;-73
2022/11/29 08:10:09;;;;;;;45.20;24.97;;;5.30;1.00;;;;;;5073818;28;20407;-73
2022/11/29 08:12:35;;;;;;;52.93;27.03;;;5.30;1.00;;;;;;5076071;28;20393;-73
2022/11/29 08:15:01;;;;;;;50.87;28.73;;;5.30;1.00;;;;;;5075144;28;20403;-74
2022/11/29 08:17:27;;;;;;;47.63;29.50;;;5.20;1.00;;;;;;5075736;28;20412;-74
2022/11/29 08:19:53;;;;;;;47.97;28.20;;;5.20;1.00;;;;;;5075977;28;20394;-73
2022/11/29 08:22:18;;;;;;;43.83;28.70;;;5.20;1.00;;;;;;5075314;28;20404;-74
2022/11/29 08:24:44;;;;;;;48.73;27.33;;;5.20;1.00;;;;;;5073789;28;20174;-74
2022/11/29 08:27:10;;;;;;;44.70;28.30;;;5.10;1.00;;;;;;5075537;28;20214;-73
2022/11/29 08:29:36;;;;;;;57.73;29.13;;;5.10;1.00;;;;;;5075646;28;20175;-74
2022/11/29 08:32:01;;;;;;;50.07;28.73;;;5.20;1.00;;;;;;5075639;28;20196;-74
2022/11/29 08:34:27;;;;;;;47.87;28.10;;;5.20;1.00;;;;;;5075123;28;20158;-73
2022/11/29 08:36:56;;;;;;;51.90;27.80;;;5.20;1.00;;;;;;5075380;28;20758;-73
2022/11/29 08:39:22;;;;;;;43.90;27.47;;;5.20;1.00;;;;;;5075496;28;20163;-73
2022/11/29 08:41:49;;;;;;;42.00;26.90;;;5.20;1.00;;;;;;5075390;28;20556;-74
2022/11/29 08:44:14;;;;;;;49.50;28.40;;;5.20;1.00;;;;;;5074544;28;20745;-72
2022/11/29 08:49:24;;;;;;;48.50;27.20;;;5.20;1.00;;;;;;5075072;28;20558;-73
2022/11/29 08:53:39;;;;;;;49.50;30.13;;;5.20;1.00;;;;;;5075197;28;20455;-74
2022/11/29 08:54:37;;;;;;;46.97;27.27;;;5.20;1.00;;;;;;5074794;28;20614;-73
2022/11/29 08:57:02;;;;;;;50.30;27.73;;;5.20;1.00;;;;;;5073984;28;20440;-75
2022/11/29 08:59:28;;;;;;;52.93;30.30;;;5.20;1.00;;;;;;5073494;28;20171;-74
2022/11/29 09:01:54;;;;;;;53.70;29.93;;;5.20;1.00;;;;;;5074137;28;20170;-74
2022/11/29 09:04:19;;;;;;;43.47;28.83;;;5.30;1.00;;;;;;5074454;28;20173;-77
2022/11/29 09:06:48;;;;;;;59.10;31.47;;;5.30;1.00;;;;;;5074808;28;20201;-72
2022/11/29 09:09:14;;;;;;;48.50;30.00;;;5.30;1.00;;;;;;5075006;28;20162;-74
2022/11/29 09:11:40;;;;;;;47.13;29.40;;;5.30;1.00;;;;;;5073586;28;20456;-72
2022/11/29 09:14:10;;;;;;;47.60;28.50;;;5.30;1.00;;;;;;5074208;28;20400;-73
2022/11/29 09:16:37;;;;;;;63.70;29.00;;;5.40;1.00;;;;;;5073130;28;20511;-74
2022/11/29 09:19:04;;;;;;;44.67;26.00;;;5.40;1.00;;;;;;5074578;28;20407;-72
2022/11/29 09:21:33;;;;;;;47.27;27.03;;;5.40;1.00;;;;;;5074445;28;20403;-74
2022/11/29 09:24:01;;;;;;;57.43;26.37;;;5.50;1.00;;;;;;5074544;28;20494;-72
2022/11/29 09:26:29;;;;;;;50.67;29.13;;;5.50;1.00;;;;;;5073589;28;20805;-71
2022/11/29 09:28:57;;;;;;;48.40;27.87;;;5.60;1.00;;;;;;5073646;28;20423;-71
2022/11/29 09:31:23;;;;;;;59.57;30.23;;;5.60;1.00;;;;;;5074713;28;20482;-74
2022/11/29 09:33:49;;;;;;;49.47;28.17;;;5.50;1.00;;;;;;5074187;28;20809;-74
2022/11/29 09:36:15;;;;;;;53.40;29.97;;;5.50;1.00;;;;;;5074223;28;20210;-75
2022/11/29 09:38:41;;;;;;;50.43;27.30;;;5.50;1.00;;;;;;5074787;28;20249;-72
2022/11/29 09:41:21;;;;;;;62.10;29.70;;;5.50;99.90;;;;;;5074686;28;20428;-74
2022/11/29 09:43:49;;;;;;;54.47;30.37;;;5.50;1.00;;;;;;5073897;28;20197;-73
2022/11/29 09:46:54;;;;;;;51.77;28.77;;;5.60;1.00;;;;;;5073211;28;21012;-73
2022/11/29 09:49:35;;;;;;;50.63;29.03;;;5.60;1.00;;;;;;5072598;28;20428;-74
2022/11/29 09:52:06;;;;;;;52.83;28.67;;;5.60;99.90;;;;;;5073093;28;20518;-72
2022/11/29 09:54:40;;;;;;;52.90;27.57;;;5.50;99.90;;;;;;5070948;28;20413;-75
2022/11/29 09:57:06;;;;;;;47.47;27.80;;;5.60;99.90;;;;;;5074004;28;20412;-74
2022/11/29 09:59:46;;;;;;;52.23;29.33;;;5.60;99.90;;;;;;5072590;28;20405;-74
2022/11/29 10:02:18;;;;;;;49.43;26.20;;;5.60;99.90;;;;;;5072782;28;20419;-73
2022/11/29 10:04:49;;;;;;;63.70;29.07;;;5.60;99.90;;;;;;5073133;28;20956;-74
2022/11/29 10:07:26;;;;;;;48.47;26.70;;;5.70;99.90;;;;;;5072610;28;20443;-73
2022/11/29 10:10:03;;;;;;;47.70;29.60;;;5.70;99.90;;;;;;5072628;28;20904;-76
2022/11/29 10:12:50;;;;;;;49.47;26.47;;;5.70;99.90;;;;;;5073540;28;20470;-75
2022/11/29 10:15:22;;;;;;;55.43;26.53;;;5.70;99.90;;;;;;5072704;28;20518;-74
2022/11/29 10:18:11;;;;;;;44.70;28.80;;;5.80;99.90;;;;;;5073563;28;20417;-74
2022/11/29 10:20:40;;;;;;;50.30;28.47;;;5.80;99.90;;;;;;5073582;28;20405;-73
2022/11/29 10:23:20;;;;;;;50.87;28.23;;;5.80;99.90;;;;;;5073522;28;20397;-75
2022/11/29 10:25:52;;;;;;;51.00;28.57;;;5.80;99.90;;;;;;5071775;28;20428;-74
2022/11/29 10:28:30;;;;;;;45.47;28.43;;;5.90;99.90;;;;;;5072149;28;20823;-75
2022/11/29 10:31:02;;;;;;;48.20;27.60;;;5.90;99.90;;;;;;5072996;28;20482;-75
2022/11/29 10:33:31;;;;;;;49.73;28.60;;;5.90;99.90;;;;;;5071583;28;20408;-72
2022/11/29 10:36:08;;;;;;;49.90;28.00;;;5.90;99.90;;;;;;5072720;28;20426;-72
2022/11/29 10:38:34;;;;;;;54.40;27.80;;;5.90;99.90;;;;;;5072254;28;20411;-72
2022/11/29 10:41:06;;;;;;;52.53;28.43;;;5.90;99.90;;;;;;5073326;28;20401;-74
2022/11/29 10:43:32;;;;;;;54.60;31.30;;;6.10;99.90;;;;;;5073055;28;20171;-74
2022/11/29 10:45:59;;;;;;;52.20;29.30;;;6.10;99.90;;;;;;5071258;28;20945;-74
2022/11/29 10:48:30;;;;;;;49.67;28.87;;;6.00;99.90;;;;;;5071359;28;20691;-75
2022/11/29 10:50:56;;;;;;;54.93;29.37;;;6.00;99.90;;;;;;5073065;28;20932;-72
2022/11/29 10:53:25;;;;;;;56.90;31.20;;;5.90;99.90;;;;;;5071682;28;20432;-75
2022/11/29 10:55:59;;;;;;;50.10;28.80;;;5.80;99.90;;;;;;5071518;28;20461;-72
2022/11/29 10:58:27;;;;;;;49.33;27.13;;;5.80;99.90;;;;;;5071819;28;20843;-71
2022/11/29 11:01:06;;;;;;;53.07;32.03;;;5.80;99.90;;;;;;5071749;28;20419;-73
2022/11/29 11:03:41;;;;;;;53.17;31.90;;;5.80;99.90;;;;;;5072762;28;20438;-71
2022/11/29 11:06:43;;;;;;;54.33;30.20;;;5.90;99.90;;;;;;5072307;28;20785;-73
2022/11/29 11:09:32;;;;;;;58.87;32.07;;;5.90;99.90;;;;;;5073139;28;20411;-73
2022/11/29 11:12:01;;;;;;;49.90;28.17;;;5.90;99.90;;;;;;5072917;28;20452;-71
2022/11/29 11:14:28;;;;;;;61.57;33.40;;;6.00;99.90;;;;;;5072189;28;20527;-73
2022/11/29 11:16:55;;;;;;;54.07;30.23;;;5.90;99.90;;;;;;5073133;28;20428;-71
2022/11/29 11:19:26;;;;;;;57.40;32.53;;;5.80;99.90;;;;;;5072824;28;20483;-72
2022/11/29 11:21:54;;;;;;;53.07;28.23;;;5.80;99.90;;;;;;5072901;28;20434;-72
2022/11/29 11:24:27;;;;;;;49.57;29.53;;;5.80;99.90;;;;;;5071576;28;20853;-74
2022/11/29 11:26:54;;;;;;;57.47;30.30;;;5.90;99.90;;;;;;5072605;28;20482;-71
2022/11/29 11:29:24;;;;;;;47.83;29.90;;;5.90;99.90;;;;;;5071487;28;20420;-72
2022/11/29 11:31:55;;;;;;;54.53;30.70;;;5.90;99.90;;;;;;5071567;28;20502;-73
2022/11/29 11:34:37;;;;;;;53.07;29.53;;;5.90;99.90;;;;;;5072137;28;20799;-73
2022/11/29 11:37:27;;;;;;;49.80;30.07;;;5.80;99.90;;;;;;5072734;28;20421;-73
2022/11/29 11:39:58;;;;;;;56.90;32.87;;;5.80;99.90;;;;;;5072595;28;20396;-74
2022/11/29 11:42:35;;;;;;;49.07;29.20;;;5.80;99.90;;;;;;5072146;28;20441;-72
2022/11/29 11:45:20;;;;;;;62.30;33.27;;;5.70;99.90;;;;;;5075138;28;20414;-74
2022/11/29 11:47:51;;;;;;;59.40;31.93;;;5.50;99.90;;;;;;5076471;28;20932;-72
2022/11/29 11:50:41;;;;;;;69.10;30.03;;;5.60;99.90;;;;;;5076266;28;20431;-74
2022/11/29 11:53:17;;;;;;;56.67;29.97;;;5.60;99.90;;;;;;5075224;28;20416;-72
2022/11/29 11:56:05;;;;;;;60.30;32.60;;;5.70;99.90;;;;;;5075856;28;20415;-72
2022/11/29 11:58:37;;;;;;;60.73;31.67;;;5.70;99.90;;;;;;5075665;28;20491;-73
2022/11/29 12:01:11;;;;;;;55.60;29.10;;;5.70;99.90;;;;;;5076189;28;20976;-74
2022/11/29 12:03:53;;;;;;;56.33;32.03;;;5.80;99.90;;;;;;5074518;28;20451;-75
2022/11/29 12:06:30;;;;;;;60.53;31.37;;;5.90;99.90;;;;;;5076047;28;20467;-72
2022/11/29 12:09:35;;;;;;;53.60;30.30;;;6.00;99.90;;;;;;5074859;28;20841;-72
2022/11/29 12:12:22;;;;;;;65.13;32.90;;;6.10;99.90;;;;;;5075875;28;20450;-74
2022/11/29 12:15:09;;;;;;;52.27;29.93;;;6.10;99.90;;;;;;5075255;28;20404;-74
2022/11/29 12:17:46;;;;;;;54.60;30.73;;;6.00;99.90;;;;;;5075739;28;20420;-75
2022/11/29 12:20:39;;;;;;;61.70;32.20;;;6.00;99.90;;;;;;5075636;28;20871;-72
2022/11/29 12:23:10;;;;;;;61.20;34.23;;;5.90;99.90;;;;;;5075769;28;20765;-73
2022/11/29 12:25:57;;;;;;;61.27;32.30;;;5.80;99.90;;;;;;5075004;28;20400;-75
2022/11/29 12:28:30;;;;;;;63.13;30.80;;;5.80;99.90;;;;;;5075831;28;20450;-72
2022/11/29 12:31:23;;;;;;;56.40;29.37;;;5.80;99.90;;;;;;5075517;28;20479;-74
2022/11/29 12:33:56;;;;;;;56.30;32.53;;;5.80;99.90;;;;;;5075111;28;20419;-75
2022/11/29 12:36:46;;;;;;;58.37;31.97;;;5.80;99.90;;;;;;5074980;28;20428;-75
2022/11/29 12:39:18;;;;;;;57.10;30.33;;;5.70;99.90;;;;;;5075469;28;20437;-74
2022/11/29 12:42:21;;;;;;;51.63;29.03;;;5.80;99.90;;;;;;5074278;28;20431;-76
2022/11/29 12:45:08;;;;;;;56.40;28.90;;;5.80;99.90;;;;;;5074770;28;20415;-75
2022/11/29 12:47:39;;;;;;;53.37;28.67;;;5.90;99.90;;;;;;5075170;28;20420;-75
2022/11/29 12:50:13;;;;;;;50.57;31.80;;;5.80;99.90;;;;;;5075199;28;20769;-76
2022/11/29 12:53:08;;;;;;;51.03;29.37;;;5.70;99.90;;;;;;5075279;28;20477;-73
2022/11/29 12:55:59;;;;;;;57.10;31.17;;;5.70;99.90;;;;;;5072169;28;20474;-74
2022/11/29 12:58:32;;;;;;;50.33;30.07;;;5.80;99.90;;;;;;5075301;28;20488;-75
2022/11/29 13:01:14;;;;;;;51.77;29.37;;;5.80;99.90;;;;;;5075145;28;20889;-73
2022/11/29 13:04:04;;;;;;;68.57;31.60;;;5.80;99.90;;;;;;5074560;28;20405;-71
2022/11/29 13:07:25;;;;;;;50.87;29.47;;;5.80;99.90;;;;;;5073953;28;20460;-71
2022/11/29 13:10:03;;;;;;;48.07;28.93;;;5.80;99.90;;;;;;5070564;28;20433;-74
2022/11/29 13:12:42;;;;;;;60.40;31.97;;;5.80;99.90;;;;;;5074269;28;20444;-74
2022/11/29 13:15:20;;;;;;;55.23;29.57;;;5.70;99.90;;;;;;5074123;28;20412;-74
2022/11/29 13:18:15;;;;;;;51.50;27.83;;;5.70;99.90;;;;;;5073738;28;20436;-74
2022/11/29 13:20:51;;;;;;;51.97;29.37;;;5.70;99.90;;;;;;5073667;28;20470;-74
2022/11/29 13:23:46;;;;;;;46.83;28.67;;;5.80;99.90;;;;;;5074573;28;20404;-74
2022/11/29 13:26:13;;;;;;;54.57;29.20;;;5.90;99.90;;;;;;5073451;28;20840;-75
2022/11/29 13:28:41;;;;;;;69.50;32.87;;;5.90;99.90;;;;;;5073170;28;20417;-73
2022/11/29 13:31:16;;;;;;;54.30;30.80;;;5.90;99.90;;;;;;5073895;28;21013;-74
2022/11/29 13:33:53;;;;;;;60.30;32.80;;;5.80;99.90;;;;;;5072743;28;20415;-72
2022/11/29 13:37:07;;;;;;;57.30;30.90;;;5.70;99.90;;;;;;5074282;28;20431;-72
2022/11/29 13:39:51;;;;;;;47.30;29.30;;;5.70;99.90;;;;;;4992663;28;20427;-73
2022/11/29 13:42:36;;;;;;;55.20;31.10;;;5.80;99.90;;;;;;5067372;28;20412;-72